Barlby, United Kingdom
Current Conditions -  °F | °C
As of 3:50 AM on Wednesday 28 Jan 2015 (Local Time) from EGXU Reporting Station
Broken Clouds Broken Clouds  
Wind Chill:   Ceiling: 1400
Heat Index:   Visibility: 6mi
Dew Point:   Wind: 20mph
Humidity: 81%   Direction: 200°SSW
Pressure: 29.62"   Gusts: NA
Location:  53.8°N, 1.04°W
Report Text: EGXU 280350Z AUTO 20017KT 9999 // BKN014/// 08/05 Q1003
Loading
Personal Weather Stations






























Interactive Weather Map New forecast layout! Learn more

10-Day Weather Forecast

Advertisements
Track Severe Weather on mobile